Time;durP1;ratioP1;P1;durP2;ratioP2;P2;SDS_P1;SDS_P2;PMS_P1;PMS_P2;Temp;Humidity;BMP_temperature;BMP_pressure;BME280_temperature;BME280_humidity;BME280_pressure;Samples;Min_cycle;Max_cycle;Signal;HPM_P1;HPM_P2
2024/01/07 00:00:07;;;;;;;4.38;2.50;;;0.00;88.40;;;;;;4989696;28;20031;-59
2024/01/07 00:02:33;;;;;;;5.75;2.28;;;0.00;88.50;;;;;;4991289;28;20041;-57
2024/01/07 00:05:01;;;;;;;4.20;2.55;;;0.00;88.40;;;;;;4990925;28;20072;-57
2024/01/07 00:07:28;;;;;;;7.22;2.47;;;0.00;88.30;;;;;;4991145;28;20416;-58
2024/01/07 00:09:55;;;;;;;6.53;1.75;;;0.00;87.60;;;;;;4991151;28;20022;-58
2024/01/07 00:12:22;;;;;;;5.47;2.38;;;0.00;87.10;;;;;;4990560;28;20098;-57
2024/01/07 00:14:51;;;;;;;5.82;2.60;;;0.00;87.00;;;;;;4990889;28;20428;-57
2024/01/07 00:17:18;;;;;;;5.20;2.30;;;0.00;87.20;;;;;;4990939;28;20034;-58
2024/01/07 00:19:43;;;;;;;8.18;3.63;;;0.00;87.50;;;;;;4998758;28;20482;-57
2024/01/07 00:22:09;;;;;;;5.28;2.38;;;0.00;87.50;;;;;;4996909;28;20033;-56
2024/01/07 00:24:36;;;;;;;4.45;1.60;;;0.00;87.10;;;;;;4995488;28;20155;-56
2024/01/07 00:27:08;;;;;;;6.13;2.10;;;0.00;86.60;;;;;;4990588;28;20077;-58
2024/01/07 00:29:35;;;;;;;3.90;1.83;;;0.00;86.70;;;;;;4990270;28;20432;-53
2024/01/07 00:32:04;;;;;;;6.20;1.60;;;0.00;86.30;;;;;;4990916;28;20490;-55
2024/01/07 00:34:31;;;;;;;3.95;1.80;;;0.00;86.50;;;;;;4990630;28;20485;-57
2024/01/07 00:36:58;;;;;;;6.80;2.42;;;0.10;86.90;;;;;;4989316;28;20095;-58
2024/01/07 00:39:24;;;;;;;6.50;2.03;;;0.00;86.70;;;;;;5002936;28;20022;-58
2024/01/07 00:41:50;;;;;;;4.40;1.80;;;0.10;86.80;;;;;;4990431;28;20044;-56
2024/01/07 00:44:16;;;;;;;5.05;1.95;;;0.00;86.80;;;;;;4990495;28;20367;-56
2024/01/07 00:46:43;;;;;;;4.88;2.75;;;0.10;86.80;;;;;;4990501;28;20026;-58
2024/01/07 00:49:10;;;;;;;4.13;1.98;;;0.10;86.50;;;;;;4990280;28;20397;-54
2024/01/07 00:51:37;;;;;;;3.70;1.45;;;0.00;86.40;;;;;;4997904;28;20019;-56
2024/01/07 00:54:03;;;;;;;4.40;2.05;;;0.10;86.70;;;;;;4999489;28;20030;-55
2024/01/07 00:56:30;;;;;;;4.20;1.55;;;0.00;87.00;;;;;;4999807;28;20565;-57
2024/01/07 00:58:57;;;;;;;5.22;2.38;;;0.00;87.60;;;;;;5000157;28;20584;-51
2024/01/07 01:01:24;;;;;;;4.10;1.65;;;0.00;88.30;;;;;;4990239;28;20034;-54
2024/01/07 01:03:51;;;;;;;3.72;1.73;;;0.00;88.70;;;;;;5002771;28;20079;-53
2024/01/07 01:06:18;;;;;;;4.47;1.90;;;0.00;89.00;;;;;;4989703;28;20134;-54
2024/01/07 01:08:45;;;;;;;5.78;2.90;;;0.00;89.20;;;;;;4990256;28;20143;-57
2024/01/07 01:11:12;;;;;;;6.05;2.15;;;0.00;89.40;;;;;;4990019;28;20038;-57
2024/01/07 01:13:38;;;;;;;4.20;2.55;;;0.00;89.50;;;;;;4989177;28;20041;-53
2024/01/07 01:16:06;;;;;;;6.70;1.85;;;0.00;89.40;;;;;;4990014;28;20056;-56
2024/01/07 01:18:32;;;;;;;3.72;1.90;;;0.00;88.90;;;;;;4989596;28;20026;-55
2024/01/07 01:20:59;;;;;;;4.38;1.75;;;-3276.70;88.40;;;;;;4989902;28;20031;-49
2024/01/07 01:23:26;;;;;;;5.60;2.00;;;-3276.70;88.30;;;;;;4990020;28;20040;-51
2024/01/07 01:25:53;;;;;;;3.95;2.00;;;-3276.70;88.30;;;;;;4989267;28;20131;-52
2024/01/07 01:28:20;;;;;;;5.30;1.63;;;-3276.70;88.20;;;;;;4989722;28;20125;-50
2024/01/07 01:30:47;;;;;;;4.68;1.73;;;-3276.60;87.90;;;;;;4989522;28;20091;-52
2024/01/07 01:33:14;;;;;;;3.45;2.28;;;-3276.70;88.00;;;;;;4988821;28;20035;-55
2024/01/07 01:35:40;;;;;;;5.03;2.10;;;-3276.70;88.40;;;;;;4989943;28;20018;-52
2024/01/07 01:38:07;;;;;;;3.88;1.90;;;-3276.70;88.80;;;;;;4999856;28;20356;-55
2024/01/07 01:40:34;;;;;;;3.20;1.75;;;0.00;89.10;;;;;;4996388;28;20048;-51
2024/01/07 01:43:01;;;;;;;3.92;1.67;;;-3276.70;89.20;;;;;;4989358;28;20082;-49
2024/01/07 01:45:28;;;;;;;5.15;2.20;;;-3276.70;89.00;;;;;;4989613;28;20037;-54
2024/01/07 01:47:55;;;;;;;4.78;1.88;;;-3276.70;89.10;;;;;;4998945;28;20084;-49
2024/01/07 01:50:22;;;;;;;5.20;2.03;;;-3276.70;88.90;;;;;;4989497;28;20027;-48
2024/01/07 01:52:51;;;;;;;5.50;2.55;;;-3276.70;89.00;;;;;;4989663;28;20040;-53
2024/01/07 01:55:19;;;;;;;4.05;2.25;;;-3276.70;89.00;;;;;;4989372;28;20069;-52
2024/01/07 01:57:47;;;;;;;4.40;1.90;;;-3276.70;88.80;;;;;;4989356;28;20431;-49
2024/01/07 02:00:14;;;;;;;9.32;2.72;;;-3276.70;88.30;;;;;;4988930;28;20018;-51
2024/01/07 02:02:41;;;;;;;5.25;2.13;;;-3276.70;87.90;;;;;;4989559;28;20026;-51
2024/01/07 02:05:09;;;;;;;4.43;2.20;;;0.00;87.70;;;;;;4989065;28;20031;-48
2024/01/07 02:07:36;;;;;;;4.10;2.17;;;0.00;87.50;;;;;;4988727;28;20034;-51
2024/01/07 02:10:07;;;;;;;6.65;2.25;;;0.00;87.80;;;;;;4989199;28;20113;-53
2024/01/07 02:12:34;;;;;;;5.50;2.70;;;0.00;88.00;;;;;;4989223;28;20064;-49
2024/01/07 02:15:01;;;;;;;6.65;2.17;;;0.00;88.00;;;;;;4989281;28;20431;-54
2024/01/07 02:17:28;;;;;;;3.70;2.08;;;0.00;87.90;;;;;;4989041;28;20019;-51
2024/01/07 02:19:55;;;;;;;5.38;2.00;;;0.00;87.40;;;;;;4998115;28;20027;-49
2024/01/07 02:22:22;;;;;;;3.20;1.70;;;0.00;86.90;;;;;;4989433;28;20027;-51
2024/01/07 02:24:49;;;;;;;3.55;2.10;;;0.00;86.80;;;;;;4989155;28;20018;-51
2024/01/07 02:27:16;;;;;;;4.75;2.08;;;0.00;86.20;;;;;;4988628;28;20471;-51
2024/01/07 02:29:43;;;;;;;3.83;1.77;;;0.00;86.00;;;;;;4988664;28;20026;-48
2024/01/07 02:32:09;;;;;;;3.85;1.83;;;0.00;85.60;;;;;;4988977;28;20022;-47
2024/01/07 02:34:36;;;;;;;6.53;1.80;;;0.00;85.40;;;;;;4988497;28;20027;-49
2024/01/07 02:37:03;;;;;;;7.45;1.80;;;0.00;85.30;;;;;;4988142;28;20041;-52
2024/01/07 02:39:30;;;;;;;6.03;1.65;;;0.00;85.10;;;;;;5034464;28;20055;-48
2024/01/07 02:41:59;;;;;;;4.18;1.88;;;0.00;84.90;;;;;;4994626;28;20022;-51
2024/01/07 02:44:26;;;;;;;4.28;1.83;;;0.10;84.60;;;;;;5055113;28;20032;-47
2024/01/07 02:46:53;;;;;;;5.25;1.83;;;0.10;84.30;;;;;;5056249;28;20017;-49
2024/01/07 02:49:21;;;;;;;3.78;2.00;;;0.20;84.10;;;;;;5074153;28;20082;-48
2024/01/07 02:51:49;;;;;;;4.25;1.60;;;0.20;84.00;;;;;;5073784;28;20021;-47
2024/01/07 02:54:15;;;;;;;2.92;1.50;;;0.10;83.70;;;;;;5073618;28;20153;-49
2024/01/07 02:56:41;;;;;;;5.55;1.90;;;0.20;83.40;;;;;;5073831;28;20099;-49
2024/01/07 02:59:08;;;;;;;5.60;2.08;;;0.20;83.50;;;;;;5074398;28;20468;-49
2024/01/07 03:01:40;;;;;;;4.07;1.83;;;0.20;83.80;;;;;;5074461;28;20036;-48
2024/01/07 03:04:10;;;;;;;2.75;1.50;;;0.20;83.20;;;;;;5073450;28;20402;-49
2024/01/07 03:06:38;;;;;;;2.55;1.20;;;0.30;83.10;;;;;;5074344;28;20587;-48
2024/01/07 03:09:05;;;;;;;3.65;1.50;;;0.30;82.30;;;;;;5074151;28;20028;-48
2024/01/07 03:11:31;;;;;;;3.33;1.17;;;0.30;82.30;;;;;;5074176;28;20096;-49
2024/01/07 03:13:58;;;;;;;3.47;1.52;;;0.30;81.70;;;;;;5074349;28;20099;-48
2024/01/07 03:16:28;;;;;;;5.55;1.70;;;0.30;80.90;;;;;;5073979;28;20091;-47
2024/01/07 03:18:55;;;;;;;2.80;1.23;;;0.30;81.30;;;;;;5073944;28;20111;-49
2024/01/07 03:21:23;;;;;;;4.00;1.52;;;0.30;81.90;;;;;;5074451;28;20048;-49
2024/01/07 03:23:50;;;;;;;5.10;1.50;;;0.30;81.60;;;;;;5073928;28;20078;-53
2024/01/07 03:26:19;;;;;;;3.38;1.65;;;0.40;81.80;;;;;;5073673;28;20476;-47
2024/01/07 03:28:46;;;;;;;3.53;1.27;;;0.30;80.50;;;;;;5055686;28;20032;-51
2024/01/07 03:31:15;;;;;;;2.70;1.20;;;0.30;80.40;;;;;;5073707;28;20028;-52
2024/01/07 03:33:45;;;;;;;3.30;1.20;;;0.30;80.20;;;;;;5073506;28;20464;-47
2024/01/07 03:36:13;;;;;;;6.97;1.70;;;0.40;79.50;;;;;;5079711;28;20321;-48
2024/01/07 03:38:41;;;;;;;4.63;1.50;;;0.30;79.30;;;;;;5087452;28;20077;-49
2024/01/07 03:41:08;;;;;;;4.55;1.40;;;0.30;80.10;;;;;;5073958;28;20041;-51
2024/01/07 03:43:35;;;;;;;3.70;1.20;;;0.40;81.00;;;;;;5010847;28;20047;-50
2024/01/07 03:46:04;;;;;;;2.63;1.40;;;0.30;80.60;;;;;;4991119;28;20034;-49
2024/01/07 03:48:31;;;;;;;6.07;1.00;;;0.20;79.60;;;;;;4991106;28;20034;-48
2024/01/07 03:50:58;;;;;;;3.70;1.42;;;0.30;79.60;;;;;;4999911;28;20037;-48
2024/01/07 03:53:23;;;;;;;2.38;1.05;;;0.30;80.10;;;;;;4991550;28;20019;-49
2024/01/07 03:55:49;;;;;;;3.28;1.20;;;0.30;79.70;;;;;;4996821;28;20044;-47
2024/01/07 03:58:16;;;;;;;4.45;2.53;;;0.20;79.90;;;;;;4977436;28;20053;-51
2024/01/07 04:00:44;;;;;;;6.13;1.75;;;0.30;80.40;;;;;;4974598;28;20073;-49
2024/01/07 04:03:11;;;;;;;5.32;1.50;;;0.30;80.30;;;;;;4991133;28;20034;-49
2024/01/07 04:05:38;;;;;;;4.22;1.42;;;0.30;80.60;;;;;;4991075;28;20036;-47
2024/01/07 04:08:09;;;;;;;2.25;1.17;;;0.30;79.80;;;;;;4991362;28;20038;-48
2024/01/07 04:10:37;;;;;;;3.45;1.52;;;0.30;79.70;;;;;;4989995;28;20041;-51
2024/01/07 04:13:07;;;;;;;3.17;1.38;;;0.30;79.60;;;;;;4991046;28;20159;-50
2024/01/07 04:15:34;;;;;;;4.53;1.30;;;0.30;79.50;;;;;;4990835;28;20041;-50
2024/01/07 04:18:03;;;;;;;4.15;1.55;;;0.30;79.50;;;;;;4990862;28;20509;-49
2024/01/07 04:20:31;;;;;;;5.82;1.52;;;0.40;80.10;;;;;;4991060;28;20419;-50
2024/01/07 04:22:58;;;;;;;4.45;1.63;;;0.40;80.10;;;;;;4990624;28;20045;-48
2024/01/07 04:25:24;;;;;;;2.78;1.30;;;0.40;80.10;;;;;;4990595;28;20038;-50
2024/01/07 04:27:51;;;;;;;4.90;2.53;;;0.40;80.40;;;;;;4994140;28;20049;-51
2024/01/07 04:30:18;;;;;;;4.63;1.77;;;0.40;79.60;;;;;;4991011;28;20038;-49
2024/01/07 04:32:47;;;;;;;2.63;1.00;;;0.40;79.00;;;;;;4990729;28;20367;-50
2024/01/07 04:35:14;;;;;;;3.10;1.50;;;0.40;79.60;;;;;;4990496;28;20530;-48
2024/01/07 04:37:42;;;;;;;4.38;1.40;;;0.40;80.20;;;;;;4990448;28;20143;-47
2024/01/07 04:40:09;;;;;;;7.38;2.75;;;0.40;80.30;;;;;;4990371;28;20030;-52
2024/01/07 04:42:36;;;;;;;3.13;1.20;;;0.40;80.30;;;;;;4989834;28;20065;-47
2024/01/07 04:45:04;;;;;;;5.38;1.85;;;0.40;80.30;;;;;;4990690;28;20030;-52
2024/01/07 04:47:34;;;;;;;3.78;1.65;;;0.40;80.30;;;;;;5000204;28;20589;-49
2024/01/07 04:50:01;;;;;;;3.30;1.60;;;0.40;79.90;;;;;;4992534;28;20022;-51
2024/01/07 04:52:29;;;;;;;6.82;1.58;;;0.40;79.60;;;;;;5009293;28;20026;-48
2024/01/07 04:54:56;;;;;;;4.00;1.13;;;0.40;79.70;;;;;;5010165;28;20037;-48
2024/01/07 04:57:23;;;;;;;2.78;1.20;;;0.50;80.10;;;;;;5010263;28;20112;-48
2024/01/07 04:59:53;;;;;;;3.85;1.40;;;0.40;80.30;;;;;;5010735;28;20026;-51
2024/01/07 05:02:22;;;;;;;3.25;1.48;;;0.40;80.40;;;;;;5011981;28;20045;-49
2024/01/07 05:04:49;;;;;;;8.15;1.63;;;0.50;80.20;;;;;;5009285;28;20037;-48
2024/01/07 05:07:16;;;;;;;4.43;1.50;;;0.50;80.60;;;;;;5008597;28;20030;-50
2024/01/07 05:09:43;;;;;;;4.47;1.50;;;0.50;80.60;;;;;;5009914;28;20026;-48
2024/01/07 05:12:10;;;;;;;3.33;1.42;;;0.50;80.40;;;;;;5014585;28;20025;-49
2024/01/07 05:14:37;;;;;;;3.45;1.30;;;0.40;80.00;;;;;;5020603;28;20025;-48
2024/01/07 05:17:07;;;;;;;5.95;1.50;;;0.40;79.60;;;;;;5021201;28;20022;-49
2024/01/07 05:19:34;;;;;;;4.05;1.48;;;0.40;79.70;;;;;;5021405;28;20060;-53
2024/01/07 05:22:01;;;;;;;2.45;1.17;;;0.50;79.70;;;;;;5019474;28;20117;-52
2024/01/07 05:24:29;;;;;;;3.13;1.52;;;0.50;80.30;;;;;;5004313;28;20070;-51
2024/01/07 05:26:58;;;;;;;3.20;1.38;;;0.50;80.20;;;;;;5020010;28;20026;-49
2024/01/07 05:29:25;;;;;;;3.57;1.80;;;0.50;79.90;;;;;;5021634;28;20023;-50
2024/01/07 05:31:52;;;;;;;3.35;1.13;;;0.50;79.40;;;;;;5021360;28;20022;-52
2024/01/07 05:34:19;;;;;;;4.32;1.48;;;0.50;78.50;;;;;;5021104;28;20014;-48
2024/01/07 05:36:46;;;;;;;2.40;1.20;;;0.50;78.70;;;;;;5021584;28;20124;-48
2024/01/07 05:39:12;;;;;;;3.25;1.60;;;0.50;78.50;;;;;;5021505;28;20459;-50
2024/01/07 05:41:38;;;;;;;2.92;1.50;;;0.50;78.60;;;;;;5021438;28;20419;-50
2024/01/07 05:44:08;;;;;;;3.05;1.20;;;0.50;78.70;;;;;;5020308;28;20110;-48
2024/01/07 05:46:40;;;;;;;3.30;1.45;;;0.60;78.50;;;;;;5020481;28;20029;-51
2024/01/07 05:49:08;;;;;;;3.83;1.80;;;0.50;78.90;;;;;;5020275;28;20025;-49
2024/01/07 05:51:39;;;;;;;2.42;1.20;;;0.50;78.90;;;;;;5020686;28;20021;-50
2024/01/07 05:54:05;;;;;;;3.05;1.00;;;0.50;78.30;;;;;;5019623;28;20084;-50
2024/01/07 05:56:37;;;;;;;2.03;0.90;;;0.50;78.50;;;;;;5010017;28;20090;-53
2024/01/07 05:59:04;;;;;;;3.22;1.27;;;0.50;78.30;;;;;;5008632;28;20117;-52
2024/01/07 06:01:30;;;;;;;5.72;1.80;;;0.50;78.30;;;;;;5009052;28;20022;-50
2024/01/07 06:03:57;;;;;;;5.07;1.50;;;0.50;78.60;;;;;;5010537;28;20032;-49
2024/01/07 06:06:24;;;;;;;3.30;1.70;;;0.50;78.40;;;;;;5011859;28;20030;-49
2024/01/07 06:08:51;;;;;;;4.75;1.48;;;0.60;78.10;;;;;;5010581;28;20105;-49
2024/01/07 06:11:20;;;;;;;2.50;1.48;;;0.60;78.80;;;;;;5013978;28;20034;-52
2024/01/07 06:13:49;;;;;;;3.50;1.33;;;0.50;78.50;;;;;;5019440;28;20446;-51
2024/01/07 06:16:14;;;;;;;3.47;1.37;;;0.50;77.90;;;;;;5020811;28;20359;-53
2024/01/07 06:18:41;;;;;;;2.25;1.05;;;0.60;78.20;;;;;;5022604;28;20260;-49
2024/01/07 06:21:10;;;;;;;4.18;1.60;;;0.60;78.80;;;;;;5006145;28;20030;-52
2024/01/07 06:23:37;;;;;;;3.75;1.42;;;0.60;79.20;;;;;;5024435;28;20344;-54
2024/01/07 06:26:03;;;;;;;3.80;1.63;;;0.60;79.80;;;;;;5025545;28;20034;-51
2024/01/07 06:28:32;;;;;;;4.22;2.60;;;0.60;79.20;;;;;;5002609;28;20452;-48
2024/01/07 06:31:02;;;;;;;6.82;2.33;;;0.60;78.90;;;;;;5023472;28;20100;-51
2024/01/07 06:33:28;;;;;;;29.38;16.90;;;0.60;79.00;;;;;;5011268;28;20124;-55
2024/01/07 06:35:55;;;;;;;26.88;17.48;;;0.60;79.20;;;;;;4996254;28;20118;-52
2024/01/07 06:38:23;;;;;;;11.25;6.55;;;0.60;78.70;;;;;;5025696;28;20049;-53
2024/01/07 06:40:51;;;;;;;4.28;2.83;;;0.60;79.00;;;;;;4997206;28;20072;-53
2024/01/07 06:43:21;;;;;;;6.55;2.20;;;0.60;78.00;;;;;;4996452;28;20058;-53
2024/01/07 06:45:47;;;;;;;4.10;2.15;;;0.60;77.90;;;;;;4998369;28;20023;-54
2024/01/07 06:48:14;;;;;;;3.63;1.85;;;0.70;77.90;;;;;;4997631;28;20039;-52
2024/01/07 06:50:41;;;;;;;6.40;2.30;;;0.70;78.30;;;;;;4995797;28;20050;-52
2024/01/07 06:53:08;;;;;;;5.22;2.42;;;0.60;77.60;;;;;;4974612;28;20022;-54
2024/01/07 06:55:35;;;;;;;3.55;1.48;;;0.70;78.00;;;;;;4992277;28;20044;-56
2024/01/07 06:58:02;;;;;;;3.17;1.85;;;0.70;77.60;;;;;;4991496;28;20026;-51
2024/01/07 07:00:28;;;;;;;3.38;1.83;;;0.70;77.60;;;;;;4992051;28;20331;-51
2024/01/07 07:02:55;;;;;;;5.30;2.25;;;0.70;77.70;;;;;;4992358;28;20042;-54
2024/01/07 07:05:22;;;;;;;3.75;1.60;;;0.60;77.30;;;;;;4991626;28;20105;-55
2024/01/07 07:07:49;;;;;;;5.85;1.40;;;0.70;77.80;;;;;;4995266;28;20139;-52
2024/01/07 07:10:16;;;;;;;4.05;1.85;;;0.70;78.00;;;;;;4995909;28;20034;-53
2024/01/07 07:12:42;;;;;;;6.20;3.25;;;0.70;77.90;;;;;;4996182;28;20026;-54
2024/01/07 07:15:09;;;;;;;5.78;1.40;;;0.70;77.60;;;;;;4998360;28;20095;-51
2024/01/07 07:17:38;;;;;;;2.47;1.00;;;0.70;77.60;;;;;;4997596;28;20095;-52
2024/01/07 07:20:06;;;;;;;3.97;1.30;;;0.80;77.80;;;;;;4991348;28;20344;-55
2024/01/07 07:22:33;;;;;;;2.28;1.05;;;0.70;77.10;;;;;;4993697;28;20034;-52
2024/01/07 07:24:59;;;;;;;6.13;1.63;;;0.70;76.80;;;;;;4993666;28;20037;-57
2024/01/07 07:27:26;;;;;;;8.05;4.45;;;0.70;76.80;;;;;;5000245;28;20462;-53
2024/01/07 07:29:53;;;;;;;72.97;34.35;;;0.70;75.80;;;;;;5000692;28;20042;-50
2024/01/07 07:32:21;;;;;;;9.32;5.50;;;0.70;76.10;;;;;;4992898;28;20023;-53
2024/01/07 07:34:48;;;;;;;5.75;2.33;;;0.70;75.70;;;;;;4993014;28;20155;-50
2024/01/07 07:37:15;;;;;;;4.18;2.22;;;0.70;75.60;;;;;;4992861;28;20038;-53
2024/01/07 07:39:42;;;;;;;3.50;2.03;;;0.70;75.90;;;;;;4998751;28;20030;-52
2024/01/07 07:42:10;;;;;;;3.60;1.70;;;0.70;76.40;;;;;;4992758;28;20078;-55
2024/01/07 07:44:39;;;;;;;4.07;2.22;;;0.70;76.90;;;;;;4977437;28;20092;-56
2024/01/07 07:47:05;;;;;;;6.18;3.03;;;0.70;79.40;;;;;;4983835;28;20038;-55
2024/01/07 07:49:35;;;;;;;10.00;2.75;;;0.80;81.80;;;;;;4982697;28;20106;-55
2024/01/07 07:52:01;;;;;;;7.85;2.83;;;0.70;81.80;;;;;;4979782;28;20390;-53
2024/01/07 07:54:28;;;;;;;8.77;2.88;;;0.70;82.90;;;;;;4982581;28;20026;-52
2024/01/07 07:56:55;;;;;;;5.53;2.65;;;0.70;83.50;;;;;;4978540;28;20127;-51
2024/01/07 07:59:24;;;;;;;6.13;2.90;;;0.70;83.50;;;;;;4983030;28;20029;-53
2024/01/07 08:01:50;;;;;;;6.55;2.55;;;0.60;83.20;;;;;;4980213;28;20106;-53
2024/01/07 08:04:17;;;;;;;6.15;4.47;;;0.60;82.80;;;;;;4982683;28;20121;-54
2024/01/07 08:06:45;;;;;;;7.18;3.22;;;0.60;82.50;;;;;;4981734;28;20030;-54
2024/01/07 08:09:11;;;;;;;7.68;3.33;;;0.50;81.70;;;;;;4978856;28;20084;-52
2024/01/07 08:11:41;;;;;;;6.28;3.95;;;0.50;82.90;;;;;;4982284;28;20354;-53
2024/01/07 08:14:09;;;;;;;5.88;2.50;;;0.50;83.40;;;;;;4981043;28;20371;-55
2024/01/07 08:16:35;;;;;;;6.80;2.53;;;0.50;83.50;;;;;;4980008;28;20019;-53
2024/01/07 08:19:02;;;;;;;7.30;3.50;;;0.50;83.60;;;;;;4978747;28;20038;-53
2024/01/07 08:21:28;;;;;;;6.90;2.72;;;0.50;84.30;;;;;;4981639;28;20038;-55
2024/01/07 08:23:56;;;;;;;6.38;2.92;;;0.50;85.00;;;;;;4982082;28;20011;-55
2024/01/07 08:26:23;;;;;;;5.13;2.50;;;0.40;85.10;;;;;;4978946;28;20122;-56
2024/01/07 08:28:50;;;;;;;5.82;2.53;;;0.40;85.10;;;;;;4976214;28;20456;-55
2024/01/07 08:31:17;;;;;;;7.60;2.85;;;0.40;84.50;;;;;;4974839;28;20031;-57
2024/01/07 08:33:44;;;;;;;7.00;3.78;;;0.30;84.30;;;;;;5072310;28;20039;-52
2024/01/07 08:36:11;;;;;;;6.30;2.30;;;0.40;84.40;;;;;;5060282;28;20090;-56
2024/01/07 08:38:38;;;;;;;4.07;2.15;;;0.30;84.60;;;;;;5077938;28;20366;-53
2024/01/07 08:41:04;;;;;;;5.55;2.65;;;0.30;84.60;;;;;;5075877;28;20035;-53
2024/01/07 08:43:31;;;;;;;5.28;2.70;;;0.30;84.70;;;;;;5045217;28;20048;-51
2024/01/07 08:45:58;;;;;;;4.32;2.22;;;0.30;84.80;;;;;;5077793;28;20175;-51
2024/01/07 08:48:24;;;;;;;5.65;2.28;;;0.20;84.80;;;;;;5077660;28;20028;-55
2024/01/07 08:50:51;;;;;;;7.45;2.55;;;0.20;84.80;;;;;;5075914;28;20032;-52
2024/01/07 08:53:20;;;;;;;4.35;1.77;;;0.20;84.60;;;;;;5078845;28;20349;-53
2024/01/07 08:55:46;;;;;;;6.07;2.15;;;0.20;84.40;;;;;;5080897;28;20039;-50
2024/01/07 08:58:14;;;;;;;4.25;2.03;;;0.20;84.40;;;;;;5081088;28;20029;-51
2024/01/07 09:00:45;;;;;;;6.35;2.92;;;0.20;84.60;;;;;;5080661;28;20133;-53
2024/01/07 09:03:11;;;;;;;5.13;2.15;;;0.20;84.60;;;;;;5078107;28;20028;-56
2024/01/07 09:05:41;;;;;;;4.55;2.10;;;0.20;84.70;;;;;;5077958;28;20086;-55
2024/01/07 09:08:06;;;;;;;;;;;0.20;84.70;;;;;;4979634;28;20072;-54
2024/01/07 09:10:33;;;;;;;4.68;2.22;;;0.20;84.90;;;;;;4970146;28;19960;-53
2024/01/07 09:13:02;;;;;;;10.13;3.08;;;0.30;84.90;;;;;;4976472;28;20026;-52
2024/01/07 09:15:29;;;;;;;5.05;2.47;;;0.30;84.80;;;;;;4982497;28;20042;-54
2024/01/07 09:17:55;;;;;;;4.15;2.20;;;0.40;84.80;;;;;;4971265;28;20364;-54
2024/01/07 09:20:22;;;;;;;7.45;2.63;;;0.40;84.30;;;;;;4969505;28;20502;-56
2024/01/07 09:22:52;;;;;;;6.20;2.58;;;0.40;84.50;;;;;;4969287;28;20026;-53
2024/01/07 09:25:18;;;;;;;6.47;2.67;;;0.50;84.60;;;;;;4984937;28;20067;-55
2024/01/07 09:27:44;;;;;;;6.28;2.22;;;0.50;84.30;;;;;;5073095;28;20020;-56
2024/01/07 09:30:11;;;;;;;6.10;2.60;;;0.50;84.20;;;;;;5073520;28;20438;-57
2024/01/07 09:32:37;;;;;;;5.55;2.30;;;0.50;84.10;;;;;;5073338;28;20040;-58
2024/01/07 09:35:05;;;;;;;6.50;2.63;;;0.40;84.00;;;;;;5071139;28;20020;-56
2024/01/07 09:37:32;;;;;;;4.13;2.38;;;0.40;84.00;;;;;;5071047;28;20025;-56
2024/01/07 09:40:04;;;;;;;6.47;2.72;;;0.40;83.90;;;;;;5081850;28;20020;-59
2024/01/07 09:42:31;;;;;;;5.20;2.63;;;0.50;84.00;;;;;;5070217;28;20029;-56
2024/01/07 09:45:01;;;;;;;5.18;2.67;;;0.50;84.00;;;;;;5014997;28;20026;-60
2024/01/07 09:47:27;;;;;;;10.85;2.80;;;0.50;83.80;;;;;;5012563;28;20034;-60
2024/01/07 09:49:52;;;;;;;8.70;2.72;;;0.50;83.50;;;;;;5008502;28;20042;-61
2024/01/07 09:52:20;;;;;;;5.35;2.85;;;0.60;83.80;;;;;;4992498;28;20030;-62
2024/01/07 09:54:52;;;;;;;7.72;2.72;;;0.70;83.80;;;;;;5021194;28;20052;-63
2024/01/07 09:57:22;;;;;;;6.13;3.40;;;0.70;83.40;;;;;;5015859;28;20029;-64
2024/01/07 09:59:53;;;;;;;6.28;3.10;;;0.80;83.70;;;;;;5011840;28;20096;-65
2024/01/07 10:02:22;;;;;;;4.45;2.70;;;0.80;83.70;;;;;;5011865;28;20034;-65
2024/01/07 10:04:49;;;;;;;7.03;2.72;;;0.80;83.40;;;;;;5011911;28;20022;-66
2024/01/07 10:07:17;;;;;;;8.55;3.47;;;0.70;83.20;;;;;;4995789;28;20062;-65
2024/01/07 10:09:43;;;;;;;5.18;2.58;;;0.80;83.00;;;;;;4994091;28;20021;-66
2024/01/07 10:12:12;;;;;;;4.55;2.65;;;0.80;82.70;;;;;;4994517;28;20487;-66
2024/01/07 10:14:40;;;;;;;5.83;1.93;;;0.80;82.80;;;;;;5011746;28;20091;-66
2024/01/07 10:17:17;;;;;;;5.00;2.65;;;0.60;81.90;;;;;;5012215;28;20042;-66
2024/01/07 10:19:48;;;;;;;4.40;2.28;;;0.60;81.80;;;;;;5012052;28;20104;-66
2024/01/07 10:22:15;;;;;;;9.65;2.50;;;0.50;81.60;;;;;;5011728;28;20091;-66
2024/01/07 10:24:45;;;;;;;4.00;2.20;;;0.50;81.70;;;;;;4994663;28;20026;-66
2024/01/07 10:27:13;;;;;;;6.07;2.85;;;0.50;82.30;;;;;;5011795;28;20371;-66
2024/01/07 10:29:40;;;;;;;7.95;5.03;;;0.50;81.90;;;;;;5011567;28;20026;-66
2024/01/07 10:32:09;;;;;;;5.60;2.70;;;0.50;82.20;;;;;;5011391;28;20101;-66
2024/01/07 10:34:39;;;;;;;4.85;2.88;;;0.50;82.50;;;;;;4996985;28;20030;-66
2024/01/07 10:37:06;;;;;;;4.35;2.28;;;0.60;82.80;;;;;;5011776;28;20103;-66
2024/01/07 10:39:33;;;;;;;5.43;2.38;;;0.60;82.50;;;;;;5011717;28;20593;-66
2024/01/07 10:42:00;;;;;;;5.90;2.38;;;0.70;82.40;;;;;;5010906;28;20030;-66
2024/01/07 10:44:33;;;;;;;5.13;3.30;;;0.70;83.00;;;;;;5011454;28;20029;-66
2024/01/07 10:47:00;;;;;;;7.00;2.75;;;0.70;83.20;;;;;;5011519;28;20058;-66
2024/01/07 10:49:28;;;;;;;8.27;4.25;;;0.50;82.60;;;;;;5014770;28;20026;-66
2024/01/07 10:52:13;;;;;;;5.03;2.60;;;0.50;82.90;;;;;;5013070;28;20099;-66
2024/01/07 10:54:47;;;;;;;7.68;2.63;;;0.40;82.30;;;;;;5010852;28;20014;-66
2024/01/07 10:57:41;;;;;;;11.98;5.90;;;0.40;83.00;;;;;;5011044;28;20037;-66
2024/01/07 11:00:18;;;;;;;10.20;5.20;;;0.30;83.40;;;;;;5010553;28;20113;-66
2024/01/07 11:03:21;;;;;;;16.08;10.25;;;0.30;83.70;;;;;;5026778;27;20445;-65
2024/01/07 11:06:00;;;;;;;4.68;2.47;;;0.40;83.60;;;;;;5010266;28;20112;-65
2024/01/07 11:09:00;;;;;;;8.00;2.85;;;0.30;83.90;;;;;;5010106;28;20018;-65
2024/01/07 11:11:35;;;;;;;6.28;2.70;;;0.40;84.00;;;;;;5009972;28;20079;-65
2024/01/07 11:14:02;;;;;;;8.75;3.20;;;0.30;83.60;;;;;;4979938;28;20033;-65
2024/01/07 11:16:49;;;;;;;9.77;2.42;;;0.30;84.20;;;;;;5011946;28;20109;-66
2024/01/07 11:19:20;;;;;;;5.43;3.20;;;0.40;84.40;;;;;;5009996;28;20053;-65
2024/01/07 11:21:46;;;;;;;5.82;2.83;;;0.40;84.10;;;;;;5009793;28;20058;-65
2024/01/07 11:24:37;;;;;;;4.25;2.45;;;0.30;83.70;;;;;;5010255;28;20061;-65
2024/01/07 11:27:08;;;;;;;7.63;6.50;;;0.40;84.00;;;;;;4993993;28;20071;-65
2024/01/07 11:29:37;;;;;;;5.47;3.30;;;0.40;83.90;;;;;;4994444;28;20052;-66
2024/01/07 11:32:06;;;;;;;4.88;2.67;;;0.40;84.30;;;;;;5010565;28;20049;-65
2024/01/07 11:34:53;;;;;;;5.93;2.75;;;0.40;84.20;;;;;;5010231;28;20367;-65
2024/01/07 11:37:22;;;;;;;6.22;2.72;;;0.40;84.80;;;;;;5011912;28;20443;-65
2024/01/07 11:39:51;;;;;;;;;;;0.40;85.20;;;;;;5076637;27;20021;-65
2024/01/07 11:42:19;;;;;;;10.53;3.73;;;0.40;85.00;;;;;;4989823;28;19909;-65
2024/01/07 11:44:50;;;;;;;4.28;2.80;;;0.40;84.80;;;;;;4990172;28;20056;-65
2024/01/07 11:47:18;;;;;;;4.60;2.47;;;0.40;85.00;;;;;;5058531;28;20046;-65
2024/01/07 11:49:47;;;;;;;5.55;2.42;;;0.40;84.60;;;;;;4990396;28;20402;-64
2024/01/07 11:52:14;;;;;;;6.95;2.60;;;0.30;84.20;;;;;;5057695;28;20030;-64
2024/01/07 11:54:41;;;;;;;6.55;2.60;;;0.40;84.00;;;;;;4990172;28;20044;-64
2024/01/07 11:57:08;;;;;;;5.00;3.05;;;0.30;84.10;;;;;;5057236;28;20065;-64
2024/01/07 11:59:36;;;;;;;5.22;2.83;;;0.30;84.20;;;;;;4990005;28;20026;-64
2024/01/07 12:02:06;;;;;;;5.88;2.78;;;0.30;84.50;;;;;;4989792;28;20026;-64
2024/01/07 12:04:36;;;;;;;4.93;2.40;;;0.40;84.30;;;;;;4990019;28;20030;-63
2024/01/07 12:07:04;;;;;;;5.63;2.67;;;0.30;83.60;;;;;;5057250;28;20038;-63
2024/01/07 12:09:31;;;;;;;5.18;2.20;;;0.30;84.10;;;;;;4998582;28;20033;-63
2024/01/07 12:11:58;;;;;;;5.05;2.60;;;0.30;84.30;;;;;;5002271;28;20034;-63
2024/01/07 12:14:28;;;;;;;5.18;2.40;;;0.30;84.20;;;;;;4989443;28;20033;-63
2024/01/07 12:16:55;;;;;;;4.63;2.10;;;0.30;84.30;;;;;;4989004;28;20065;-62
2024/01/07 12:19:23;;;;;;;5.35;3.03;;;0.30;84.30;;;;;;5057587;28;20022;-62
2024/01/07 12:22:03;;;;;;;6.20;2.13;;;0.30;83.80;;;;;;4989733;28;20019;-62
2024/01/07 12:24:29;;;;;;;4.63;2.13;;;0.20;83.10;;;;;;4988843;28;20018;-60
2024/01/07 12:26:56;;;;;;;4.03;1.88;;;0.20;82.50;;;;;;4994697;28;20117;-58
2024/01/07 12:29:25;;;;;;;8.02;2.55;;;0.30;82.80;;;;;;5060033;28;20027;-59
2024/01/07 12:31:52;;;;;;;6.82;2.35;;;0.30;83.40;;;;;;4988982;28;20023;-59
2024/01/07 12:34:23;;;;;;;3.72;2.17;;;0.30;83.60;;;;;;4989387;28;20072;-60
2024/01/07 12:36:51;;;;;;;7.65;2.22;;;0.20;83.20;;;;;;4989417;28;20021;-58
2024/01/07 12:39:18;;;;;;;5.10;2.65;;;0.20;83.10;;;;;;4991842;28;20030;-58
2024/01/07 12:41:45;;;;;;;4.32;2.38;;;0.30;82.80;;;;;;4989411;28;20030;-58
2024/01/07 12:44:11;;;;;;;3.53;1.85;;;0.20;82.20;;;;;;5008542;28;20054;-56
2024/01/07 12:46:37;;;;;;;7.20;2.90;;;0.20;82.10;;;;;;5008692;28;20496;-57
2024/01/07 12:49:06;;;;;;;4.80;2.63;;;0.20;82.60;;;;;;5013288;28;20013;-57
2024/01/07 12:51:33;;;;;;;5.53;2.38;;;0.20;82.80;;;;;;5011749;28;20030;-54
2024/01/07 12:54:03;;;;;;;5.45;2.33;;;0.10;82.80;;;;;;4993045;28;20046;-56
2024/01/07 12:56:29;;;;;;;4.65;2.58;;;0.20;82.60;;;;;;5026636;27;20028;-54
2024/01/07 12:58:55;;;;;;;5.63;2.35;;;0.10;82.10;;;;;;5010584;28;20030;-56